This is the latest recevied weather packets stored in our database for station/object DL2GPS-3. If no packets are shown the sender has not sent any weather packets the latest 10 day(s).
| Time | Temp. | Humidity | Pressure | Rain* | Wind** | Luminosity | Snow |
|---|---|---|---|---|---|---|---|
| 1777715161 | 22.78° C | 29% | 1024.1 hPa | - | - | - | - |
| 1777714560 | 22.78° C | 30% | 1024.1 hPa | - | - | - | - |
| 1777713959 | 24.44° C | 27% | 1024.2 hPa | - | - | - | - |
| 1777713358 | 25° C | 28% | 1024.2 hPa | - | - | - | - |
| 1777712758 | 23.89° C | 28% | 1024.3 hPa | - | - | - | - |
| 1777712157 | 22.22° C | 28% | 1024.3 hPa | - | - | - | - |
| 1777711556 | 22.78° C | 28% | 1024.4 hPa | - | - | - | - |
| 1777710955 | 22.78° C | 26% | 1024.4 hPa | - | - | - | - |
| 1777710354 | 23.89° C | 26% | 1024.4 hPa | - | - | - | - |
| 1777709753 | 24.44° C | 25% | 1024.4 hPa | - | - | - | - |
| 1777709152 | 24.44° C | 25% | 1024.4 hPa | - | - | - | - |
| 1777708551 | 24.44° C | 26% | 1024.4 hPa | - | - | - | - |
| 1777707951 | 24.44° C | 26% | 1024.4 hPa | - | - | - | - |
| 1777707350 | 24.44° C | 27% | 1024.4 hPa | - | - | - | - |
| 1777706749 | 24.44° C | 26% | 1024.5 hPa | - | - | - | - |
| 1777706149 | 24.44° C | 27% | 1024.5 hPa | - | - | - | - |
| 1777705549 | 25° C | 27% | 1024.4 hPa | - | - | - | - |
| 1777704948 | 24.44° C | 28% | 1024.5 hPa | - | - | - | - |
| 1777704347 | 23.33° C | 29% | 1024.5 hPa | - | - | - | - |
| 1777703745 | 23.33° C | 29% | 1024.5 hPa | - | - | - | - |
| 1777703145 | 25° C | 28% | 1024.4 hPa | - | - | - | - |
| 1777702544 | 27.22° C | 25% | 1024.4 hPa | - | - | - | - |
| 1777701943 | 28.33° C | 24% | 1024.4 hPa | - | - | - | - |
| 1777701342 | 26.67° C | 26% | 1024.4 hPa | - | - | - | - |
| 1777700742 | 27.78° C | 24% | 1024.4 hPa | - | - | - | - |
* Rain since midnight (hover to see other rain measurements)
** Current wind speed in m/s (hover to see current wind gust speed)